Strona główna
METAR-TAF:

METAR-TAF

Lotnisko :

Port lotniczy Saragossa

Saragossa, Hiszpania

Szerokość geograficzna: 41-40N, Długość geograficzna: 001-01W, wysokość: 263 m

Aktualna obserwacja pogody

Raport powstał 15 minut temu, godzina 11:30 UTC
Wiatr 7 kt od północno-północny zachód, zmienny między północny zachód i północ
Temperatura 14°C
Wilgotność 72%
Ciśnienie 1020 hPa
Widzialność 10 km lub więcej
Rozproszone chmury na wysokości 4000 ft

METAR: LEZG 281130Z 33007KT 310V010 9999 SCT040 14/09 Q1020

czas: 12:45 (11:45 UTC)

Prognoza

Raport powstał 45 minut temu, godzina 11:00 UTC
Prognoza ważna od 28 godzina 12 UTC do 29 godzina 12 UTC
Wiatr 5 kt od zachodnio-północny zachód
Widzialność 10 km lub więcej
Rozproszone chmury na wysokości 5000 ft
Stopniowe zmiany
od 28 godzina 17 UTC do 28 godzina 19 UTC
Wiatr 10 kt od zachodnio-południowy zachód

TAF: LEZG 281100Z 2812/2912 30005KT 9999 SCT050 TX15/2813Z TN10/2906Z BECMG 2817/2819 24010KT

Obserwacja i prognoza pogody dla ponad 4000 lotnisk (raport METAR i TAF).

Dostępne stacje oznaczono żółtymi i czerwonymi punktami na mapie.

Najedź kursorem aby zobaczyć nazwę stacji.

Kliknij aby zobaczyć obserwacje i prognozy pogody.

Aby zmienić mapę: kliknij na zielony przycisk z czarnym krzyżykiem, aby powiększyć; na zielony przycisk z myślnikiem, aby pomniejszyć; na zielone strzałki, aby przejść do map sąsiednich.


METAR-TAF: